Terminal Aerodrome Forecast
Issued by NWS Bismarck, ND

Home | Current Version | Previous Version | Graphics & Text | Print | Product List | Glossary On
Versions: 1 2 3 4 5 6 7 8 9 10 11 12 13 14 15 16 17 18 19 20 21 22 23 24 25 26 27 28
460
FTUS43 KBIS 240436 AAE
TAFBIS
TAF AMD
KBIS 240436Z 2405/2424 11011KT 5SM BR VCSH SCT005 OVC012
      TEMPO 2405/2408 BKN005
     FM240800 12011KT P6SM VCFG SCT200 WS020/16040KT
     FM241600 16011KT P6SM SCT045
     FM241800 18015G22KT P6SM BKN050=

USA.gov is the U.S. government's official web portal to all federal, state and local government web resources and services.